Time;durP1;ratioP1;P1;durP2;ratioP2;P2;SDS_P1;SDS_P2;PMS_P1;PMS_P2;Temp;Humidity;BMP_temperature;BMP_pressure;BME280_temperature;BME280_humidity;BME280_pressure;Samples;Min_cycle;Max_cycle;Signal;HPM_P1;HPM_P2
2024/03/20 00:01:45;;;;;;;;;;;12.20;71.40;;;;;;5053112;28;19908;-68
2024/03/20 00:04:11;;;;;;;;;;;12.10;74.00;;;;;;5053009;28;20289;-68
2024/03/20 00:06:36;;;;;;;;;;;12.10;78.70;;;;;;5052648;28;19916;-69
2024/03/20 00:09:02;;;;;;;;;;;12.10;82.90;;;;;;5052958;28;19982;-68
2024/03/20 00:11:28;;;;;;;;;;;12.10;82.50;;;;;;5053057;28;19951;-68
2024/03/20 00:13:53;;;;;;;;;;;12.10;81.10;;;;;;5052848;28;20003;-68
2024/03/20 00:16:20;;;;;;;;;;;12.10;81.70;;;;;;5052552;28;19950;-68
2024/03/20 00:18:45;;;;;;;;;;;12.10;82.40;;;;;;5052828;28;20257;-68
2024/03/20 00:21:11;;;;;;;;;;;12.10;78.50;;;;;;5052798;28;19915;-68
2024/03/20 00:23:36;;;;;;;;;;;12.00;77.00;;;;;;5052708;28;19904;-68
2024/03/20 00:26:02;;;;;;;;;;;12.10;78.80;;;;;;5052380;28;19940;-69
2024/03/20 00:28:27;;;;;;;;;;;12.10;78.50;;;;;;5052715;28;19971;-68
2024/03/20 00:30:53;;;;;;;;;;;12.00;78.20;;;;;;5078829;23;19921;-71
2024/03/20 00:33:18;;;;;;;;;;;12.00;77.40;;;;;;5032760;28;20016;-70
2024/03/20 00:35:44;;;;;;;;;;;12.00;78.20;;;;;;5032411;28;19905;-68
2024/03/20 00:38:09;;;;;;;;;;;12.00;78.40;;;;;;5032560;28;19912;-68
2024/03/20 00:40:35;;;;;;;;;;;11.90;78.70;;;;;;5032576;28;19933;-68
2024/03/20 00:43:00;;;;;;;;;;;12.00;82.20;;;;;;5031316;28;19909;-68
2024/03/20 00:45:28;;;;;;;;;;;12.00;83.20;;;;;;5032290;28;19912;-68
2024/03/20 00:47:53;;;;;;;;;;;12.00;82.60;;;;;;5032420;28;19927;-68
2024/03/20 00:50:19;;;;;;;;;;;12.00;81.90;;;;;;5032408;28;19905;-67
2024/03/20 00:52:44;;;;;;;;;;;11.80;69.80;;;;;;5032275;28;19909;-67
2024/03/20 00:55:10;;;;;;;;;;;11.70;72.00;;;;;;5032131;28;20276;-67
2024/03/20 00:57:36;;;;;;;;;;;11.60;75.30;;;;;;5032406;28;19941;-68
2024/03/20 01:00:01;;;;;;;;;;;11.60;80.70;;;;;;5032251;28;19909;-68
2024/03/20 01:02:27;;;;;;;;;;;11.50;80.20;;;;;;5032300;28;19959;-68
2024/03/20 01:04:52;;;;;;;;;;;11.50;84.50;;;;;;5032365;28;20288;-67
2024/03/20 01:07:18;;;;;;;;;;;11.40;86.60;;;;;;5031967;28;19905;-68
2024/03/20 01:09:43;;;;;;;;;;;11.40;88.90;;;;;;5032223;28;19982;-68
2024/03/20 01:12:09;;;;;;;;;;;11.40;90.20;;;;;;5032205;28;19909;-68
2024/03/20 01:14:34;;;;;;;;;;;11.40;91.10;;;;;;5032229;28;19905;-68
2024/03/20 01:17:00;;;;;;;;;;;11.40;90.70;;;;;;5031966;28;19934;-67
2024/03/20 01:19:26;;;;;;;;;;;11.20;99.90;;;;;;5032167;28;19905;-68
2024/03/20 01:21:52;;;;;;;;;;;11.30;91.00;;;;;;5032069;28;20106;-68
2024/03/20 01:24:17;;;;;;;;;;;11.20;90.60;;;;;;5031926;28;19905;-68
2024/03/20 01:26:43;;;;;;;;;;;11.20;92.00;;;;;;5031887;28;19905;-68
2024/03/20 01:29:09;;;;;;;;;;;11.20;91.10;;;;;;5032050;28;20395;-68
2024/03/20 01:31:34;;;;;;;;;;;11.10;90.30;;;;;;5031690;28;19913;-68
2024/03/20 01:34:00;;;;;;;;;;;11.00;92.20;;;;;;5030481;28;19909;-68
2024/03/20 01:36:25;;;;;;;;;;;11.00;93.50;;;;;;5031190;28;19909;-68
2024/03/20 01:38:51;;;;;;;;;;;11.00;94.90;;;;;;5031936;28;20280;-68
2024/03/20 01:41:16;;;;;;;;;;;11.10;93.50;;;;;;5031886;28;19905;-68
2024/03/20 01:43:51;;;;;;;;;;;10.90;93.60;;;;;;5031891;28;19909;-68
2024/03/20 01:46:28;;;;;;;;;;;10.90;92.60;;;;;;5031732;28;19905;-68
2024/03/20 01:48:54;;;;;;;;;;;10.90;93.70;;;;;;5031931;28;19905;-68
2024/03/20 01:51:20;;;;;;;;;;;10.80;93.80;;;;;;5031765;28;20451;-68
2024/03/20 01:53:45;;;;;;;;;;;10.80;95.80;;;;;;5031810;28;19913;-68
2024/03/20 01:56:11;;;;;;;;;;;10.90;95.20;;;;;;5033053;28;19905;-68
2024/03/20 01:58:36;;;;;;;;;;;10.80;93.50;;;;;;5051732;28;20252;-68
2024/03/20 02:01:02;;;;;;;;;;;10.70;93.90;;;;;;5051660;28;19904;-68
2024/03/20 02:03:27;;;;;;;;;;;10.70;94.20;;;;;;5051575;28;20355;-69
2024/03/20 02:05:53;;;;;;;;;;;10.60;95.60;;;;;;5051310;28;19909;-69
2024/03/20 02:08:18;;;;;;;;;;;10.50;93.00;;;;;;5051665;28;20356;-69
2024/03/20 02:10:44;;;;;;;;;;;10.50;95.30;;;;;;5053197;28;20007;-68
2024/03/20 02:13:09;;;;;;;;;;;10.40;95.60;;;;;;5055012;28;19962;-69
2024/03/20 02:15:37;;;;;;;;;;;10.40;98.20;;;;;;5054973;28;20379;-68
2024/03/20 02:18:03;;;;;;;;;;;10.40;99.60;;;;;;5055197;28;19916;-69
2024/03/20 02:20:29;;;;;;;;;;;10.50;99.90;;;;;;5054938;28;19905;-69
2024/03/20 02:22:54;;;;;;;;;;;10.50;99.90;;;;;;5055064;28;19958;-69
2024/03/20 02:25:20;;;;;;;;;;;10.50;99.90;;;;;;5054780;28;19968;-69
2024/03/20 02:27:47;;;;;;;;;;;10.50;99.90;;;;;;5054942;28;19950;-69
2024/03/20 02:30:13;;;;;;;;;;;10.50;99.90;;;;;;5054764;28;19912;-69
2024/03/20 02:32:39;;;;;;;;;;;10.50;99.90;;;;;;5054771;28;19916;-68
2024/03/20 02:35:05;;;;;;;;;;;10.40;99.90;;;;;;5054889;28;20374;-68
2024/03/20 02:37:31;;;;;;;;;;;10.40;99.90;;;;;;5054854;28;19908;-68
2024/03/20 02:39:57;;;;;;;;;;;10.40;99.90;;;;;;5054666;28;19912;-68
2024/03/20 02:42:22;;;;;;;;;;;10.40;99.90;;;;;;5054586;28;19924;-68
2024/03/20 02:44:48;;;;;;;;;;;10.40;99.90;;;;;;5054737;28;20387;-68
2024/03/20 02:47:14;;;;;;;;;;;10.40;99.90;;;;;;5054370;28;20350;-68
2024/03/20 02:49:39;;;;;;;;;;;10.40;99.90;;;;;;5054476;28;20375;-68
2024/03/20 02:52:05;;;;;;;;;;;10.40;99.90;;;;;;5054485;28;19911;-68
2024/03/20 02:54:30;;;;;;;;;;;10.40;99.90;;;;;;5054432;28;20016;-68
2024/03/20 02:56:56;;;;;;;;;;;10.40;99.90;;;;;;5054190;28;19905;-68
2024/03/20 02:59:21;;;;;;;;;;;10.30;99.90;;;;;;5054332;28;19996;-67
2024/03/20 03:01:47;;;;;;;;;;;10.30;99.90;;;;;;5054275;28;20249;-68
2024/03/20 03:04:12;;;;;;;;;;;10.30;99.90;;;;;;5054203;28;19905;-68
2024/03/20 03:06:38;;;;;;;;;;;10.40;99.90;;;;;;5052719;28;20382;-68
2024/03/20 03:09:08;;;;;;;;;;;10.40;99.90;;;;;;5054215;28;19959;-68
2024/03/20 03:11:36;;;;;;;;;;;10.30;99.90;;;;;;5054138;28;19909;-68
2024/03/20 03:14:03;;;;;;;;;;;10.40;99.90;;;;;;5054011;28;20087;-68
2024/03/20 03:16:29;;;;;;;;;;;10.30;99.90;;;;;;5053825;28;20338;-68
2024/03/20 03:18:54;;;;;;;;;;;10.30;99.90;;;;;;5054012;28;19905;-68
2024/03/20 03:21:20;;;;;;;;;;;10.30;99.90;;;;;;5053212;28;19904;-68
2024/03/20 03:23:46;;;;;;;;;;;10.30;99.90;;;;;;5053467;28;19904;-68
2024/03/20 03:26:12;;;;;;;;;;;10.30;99.90;;;;;;5053659;28;19911;-68
2024/03/20 03:28:37;;;;;;;;;;;10.30;99.90;;;;;;5053838;28;19908;-68
2024/03/20 03:31:03;;;;;;;;;;;10.20;99.90;;;;;;5053522;28;20015;-68
2024/03/20 03:33:28;;;;;;;;;;;10.20;99.90;;;;;;5053592;28;19915;-68
2024/03/20 03:36:03;;;;;;;;;;;10.20;99.90;;;;;;5053413;28;19911;-68
2024/03/20 03:38:29;;;;;;;;;;;10.10;99.90;;;;;;5053659;28;19904;-68
2024/03/20 03:41:03;;;;;;;;;;;10.10;99.90;;;;;;5053441;28;19911;-68
2024/03/20 03:43:29;;;;;;;;;;;10.00;99.90;;;;;;5053532;28;19950;-68
2024/03/20 03:45:55;;;;;;;;;;;10.00;99.90;;;;;;5053288;28;20356;-68
2024/03/20 03:48:21;;;;;;;;;;;9.90;99.90;;;;;;5053442;28;19905;-68
2024/03/20 03:50:49;;;;;;;;;;;9.80;99.90;;;;;;5053336;28;19905;-68
2024/03/20 03:53:15;;;;;;;;;;;9.90;99.90;;;;;;5053260;28;19927;-68
2024/03/20 03:55:40;;;;;;;;;;;10.00;99.90;;;;;;5052816;28;20281;-68
2024/03/20 03:58:06;;;;;;;;;;;10.00;99.90;;;;;;5053069;28;20379;-68
2024/03/20 04:00:32;;;;;;;;;;;10.00;99.90;;;;;;5053038;28;19908;-68
2024/03/20 04:02:57;;;;;;;;;;;10.00;99.90;;;;;;5053085;28;19905;-68
2024/03/20 04:05:23;;;;;;;;;;;10.00;99.90;;;;;;5052872;28;19904;-68
2024/03/20 04:07:49;;;;;;;;;;;10.00;99.90;;;;;;5053130;28;19904;-68
2024/03/20 04:10:14;;;;;;;;;;;10.00;99.90;;;;;;5052955;28;19911;-68
2024/03/20 04:12:40;;;;;;;;;;;9.80;99.90;;;;;;5053002;28;20334;-68
2024/03/20 04:15:06;;;;;;;;;;;9.80;99.90;;;;;;5052707;28;20367;-68
2024/03/20 04:17:31;;;;;;;;;;;9.70;99.90;;;;;;5052864;28;19951;-68
2024/03/20 04:19:57;;;;;;;;;;;9.70;99.90;;;;;;5052768;28;19905;-68
2024/03/20 04:22:22;;;;;;;;;;;9.80;99.90;;;;;;5052747;28;19904;-68
2024/03/20 04:24:48;;;;;;;;;;;9.90;99.90;;;;;;5052824;28;19905;-68
2024/03/20 04:27:13;;;;;;;;;;;9.90;99.90;;;;;;5052503;28;19908;-68
2024/03/20 04:29:39;;;;;;;;;;;9.80;99.90;;;;;;5052491;28;19939;-68
2024/03/20 04:32:05;;;;;;;;;;;9.80;99.90;;;;;;5052551;28;19908;-68
2024/03/20 04:34:30;;;;;;;;;;;9.80;99.90;;;;;;5052370;28;19992;-68
2024/03/20 04:36:56;;;;;;;;;;;9.80;99.90;;;;;;5052317;28;19905;-67
2024/03/20 04:39:28;;;;;;;;;;;9.90;99.90;;;;;;5052538;28;19905;-68
2024/03/20 04:41:53;;;;;;;;;;;9.80;99.90;;;;;;5052567;28;19901;-68
2024/03/20 04:44:18;;;;;;;;;;;9.80;99.90;;;;;;5052454;28;19912;-68
2024/03/20 04:46:44;;;;;;;;;;;9.70;99.90;;;;;;5052139;28;19944;-68
2024/03/20 04:49:10;;;;;;;;;;;9.50;99.90;;;;;;5052407;28;20391;-68
2024/03/20 04:51:36;;;;;;;;;;;9.70;99.90;;;;;;5052370;28;19911;-68
2024/03/20 04:54:02;;;;;;;;;;;9.70;99.90;;;;;;5052315;28;20019;-68
2024/03/20 04:56:27;;;;;;;;;;;9.80;99.90;;;;;;5051916;28;19904;-68
2024/03/20 04:58:52;;;;;;;;;;;9.70;99.90;;;;;;5052154;28;20352;-68
2024/03/20 05:01:18;;;;;;;;;;;9.80;99.90;;;;;;5051073;28;19905;-68
2024/03/20 05:03:43;;;;;;;;;;;9.80;99.90;;;;;;5052209;28;19951;-68
2024/03/20 05:06:09;;;;;;;;;;;9.80;99.90;;;;;;5051900;28;19904;-68
2024/03/20 05:08:34;;;;;;;;;;;9.70;99.90;;;;;;5052116;28;19932;-68
2024/03/20 05:11:00;;;;;;;;;;;9.70;99.90;;;;;;5052130;28;20394;-68
2024/03/20 05:13:25;;;;;;;;;;;9.70;99.90;;;;;;5052059;28;19988;-67
2024/03/20 05:15:51;;;;;;;;;;;9.70;99.90;;;;;;5051866;28;19979;-68
2024/03/20 05:18:16;;;;;;;;;;;9.70;99.90;;;;;;5052115;28;19905;-67
2024/03/20 05:20:42;;;;;;;;;;;9.70;99.90;;;;;;5052142;28;19962;-68
2024/03/20 05:23:07;;;;;;;;;;;9.70;99.90;;;;;;5052314;28;19952;-67
2024/03/20 05:25:35;;;;;;;;;;;9.80;99.90;;;;;;5051982;28;19958;-67
2024/03/20 05:28:01;;;;;;;;;;;9.70;99.90;;;;;;5052302;28;20418;-67
2024/03/20 05:30:27;;;;;;;;;;;9.70;99.90;;;;;;5052002;28;19912;-67
2024/03/20 05:32:52;;;;;;;;;;;9.70;99.90;;;;;;5051841;28;19909;-66
2024/03/20 05:35:18;;;;;;;;;;;8.90;99.90;;;;;;5043355;28;20004;-67
2024/03/20 05:37:43;;;;;;;;;;;9.60;99.90;;;;;;5031497;28;20276;-66
2024/03/20 05:40:09;;;;;;;;;;;9.60;99.90;;;;;;5031768;28;20379;-68
2024/03/20 05:42:36;;;;;;;;;;;9.50;99.90;;;;;;5031944;28;19916;-67
2024/03/20 05:45:02;;;;;;;;;;;9.50;99.90;;;;;;5032270;28;20499;-66
2024/03/20 05:47:27;;;;;;;;;;;9.50;99.90;;;;;;5035807;28;19909;-67
2024/03/20 05:49:53;;;;;;;;;;;9.50;99.90;;;;;;5035574;28;20420;-66
2024/03/20 05:52:19;;;;;;;;;;;9.40;99.90;;;;;;5035585;28;19909;-67
2024/03/20 05:54:45;;;;;;;;;;;9.30;99.90;;;;;;5035708;28;19905;-66
2024/03/20 05:57:10;;;;;;;;;;;9.20;99.90;;;;;;5035387;28;19905;-67
2024/03/20 05:59:37;;;;;;;;;;;9.20;99.90;;;;;;5035071;28;19909;-67
2024/03/20 06:02:03;;;;;;;;;;;9.20;99.90;;;;;;5035404;28;19912;-67
2024/03/20 06:04:28;;;;;;;;;;;9.20;99.90;;;;;;5035331;28;19907;-67
2024/03/20 06:06:54;;;;;;;;;;;9.20;99.90;;;;;;5035186;28;19909;-67
2024/03/20 06:09:20;;;;;;;;;;;9.30;99.90;;;;;;5035388;28;19905;-67
2024/03/20 06:11:46;;;;;;;;;;;9.30;99.90;;;;;;5035366;28;19905;-68
2024/03/20 06:14:11;;;;;;;;;;;9.30;99.90;;;;;;5035184;28;19919;-67
2024/03/20 06:16:38;;;;;;;;;;;9.40;99.90;;;;;;5034994;28;19912;-68
2024/03/20 06:19:04;;;;;;;;;;;9.50;99.90;;;;;;5035235;28;20002;-68
2024/03/20 06:21:30;;;;;;;;;;;9.50;99.90;;;;;;5035144;28;19999;-68
2024/03/20 06:23:55;;;;;;;;;;;9.50;99.90;;;;;;5035055;28;20380;-67
2024/03/20 06:26:22;;;;;;;;;;;9.50;99.90;;;;;;5034898;28;19909;-67
2024/03/20 06:28:48;;;;;;;;;;;9.60;99.90;;;;;;5034958;28;19959;-67
2024/03/20 06:31:13;;;;;;;;;;;9.60;99.90;;;;;;5035038;28;19912;-67
2024/03/20 06:33:39;;;;;;;;;;;9.70;99.90;;;;;;5034673;28;20412;-66
2024/03/20 06:36:05;;;;;;;;;;;9.80;99.90;;;;;;5034516;28;19905;-67
2024/03/20 06:38:31;;;;;;;;;;;9.90;99.90;;;;;;5034712;28;19905;-66
2024/03/20 06:40:58;;;;;;;;;;;10.00;99.90;;;;;;5034694;28;19915;-67
2024/03/20 06:43:29;;;;;;;;;;;10.10;99.90;;;;;;5034710;28;19905;-66
2024/03/20 06:45:55;;;;;;;;;;;10.10;99.90;;;;;;5034538;28;20415;-67
2024/03/20 06:48:21;;;;;;;;;;;10.20;99.90;;;;;;5034645;28;19944;-67
2024/03/20 06:50:47;;;;;;;;;;;10.30;99.90;;;;;;5034820;28;19927;-67
2024/03/20 06:53:14;;;;;;;;;;;10.30;99.90;;;;;;5034824;28;20413;-67
2024/03/20 06:55:40;;;;;;;;;;;10.40;99.90;;;;;;5034344;28;19956;-67
2024/03/20 06:58:06;;;;;;;;;;;10.50;99.90;;;;;;5034644;28;20467;-68
2024/03/20 07:00:32;;;;;;;;;;;10.60;99.90;;;;;;5034581;28;19960;-67
2024/03/20 07:03:00;;;;;;;;;;;10.60;99.90;;;;;;5034555;28;19916;-66
2024/03/20 07:05:25;;;;;;;;;;;10.60;99.90;;;;;;5034333;28;19989;-67
2024/03/20 07:07:51;;;;;;;;;;;10.70;99.90;;;;;;5034296;28;19955;-67
2024/03/20 07:10:17;;;;;;;;;;;10.80;99.90;;;;;;5034277;28;19912;-67
2024/03/20 07:12:42;;;;;;;;;;;10.90;99.90;;;;;;5034120;28;19913;-67
2024/03/20 07:15:08;;;;;;;;;;;11.00;1.00;;;;;;5033931;28;19959;-67
2024/03/20 07:17:34;;;;;;;;;;;11.10;99.90;;;;;;5034154;28;19959;-66
2024/03/20 07:20:00;;;;;;;;;;;11.20;1.00;;;;;;5034015;28;19920;-67
2024/03/20 07:22:26;;;;;;;;;;;11.30;1.00;;;;;;5033939;28;20003;-67
2024/03/20 07:24:52;;;;;;;;;;;11.40;1.00;;;;;;5033950;28;19909;-67
2024/03/20 07:27:17;;;;;;;;;;;11.40;99.90;;;;;;5033655;28;19915;-67
2024/03/20 07:29:43;;;;;;;;;;;11.40;1.00;;;;;;5033588;28;20387;-68
2024/03/20 07:32:11;;;;;;;;;;;11.50;99.90;;;;;;5033852;28;19905;-67
2024/03/20 07:34:36;;;;;;;;;;;11.50;99.90;;;;;;5033769;28;19948;-67
2024/03/20 07:37:04;;;;;;;;;;;11.70;1.00;;;;;;5033361;28;20363;-67
2024/03/20 07:39:32;;;;;;;;;;;11.80;1.00;;;;;;5033683;28;19959;-67
2024/03/20 07:42:02;;;;;;;;;;;11.80;70.60;;;;;;5033835;28;19913;-68
2024/03/20 07:44:28;;;;;;;;;;;11.90;1.00;;;;;;5033573;28;19905;-67
2024/03/20 07:46:54;;;;;;;;;;;12.10;43.20;;;;;;5033308;28;20274;-67
2024/03/20 07:49:19;;;;;;;;;;;12.10;99.90;;;;;;5033456;28;19904;-68
2024/03/20 07:51:45;;;;;;;;;;;12.30;99.90;;;;;;5033519;28;19905;-67
2024/03/20 07:54:11;;;;;;;;;;;12.40;99.90;;;;;;5033361;28;19999;-67
2024/03/20 07:56:37;;;;;;;;;;;12.50;1.00;;;;;;5033004;28;20343;-67
2024/03/20 07:59:02;;;;;;;;;;;12.50;99.90;;;;;;5032761;28;19905;-67
2024/03/20 08:01:28;;;;;;;;;;;12.60;1.00;;;;;;5033119;28;19905;-67
2024/03/20 08:03:53;;;;;;;;;;;12.60;1.00;;;;;;5033094;28;20308;-67
2024/03/20 08:06:19;;;;;;;;;;;12.70;1.00;;;;;;5029892;28;19951;-67
2024/03/20 08:08:44;;;;;;;;;;;12.80;99.90;;;;;;5032515;28;19911;-67
2024/03/20 08:11:10;;;;;;;;;;;13.00;99.90;;;;;;5033018;28;19932;-67
2024/03/20 08:13:36;;;;;;;;;;;13.10;1.00;;;;;;5032938;28;20360;-68
2024/03/20 08:16:02;;;;;;;;;;;13.20;1.00;;;;;;5032776;28;19912;-67
2024/03/20 08:18:31;;;;;;;;;;;13.30;1.00;;;;;;5032996;28;19905;-67
2024/03/20 08:20:57;;;;;;;;;;;13.40;99.90;;;;;;5032877;28;19905;-68
2024/03/20 08:23:24;;;;;;;;;;;13.50;52.40;;;;;;5032989;28;19905;-68
2024/03/20 08:25:50;;;;;;;;;;;13.60;52.80;;;;;;5032609;28;19932;-68
2024/03/20 08:28:17;;;;;;;;;;;13.70;51.60;;;;;;5032734;28;19905;-67
2024/03/20 08:30:42;;;;;;;;;;;13.70;43.10;;;;;;5032586;28;19917;-68
2024/03/20 08:33:09;;;;;;;;;;;13.70;40.00;;;;;;5032358;28;19940;-68
2024/03/20 08:35:34;;;;;;;;;;;13.80;46.30;;;;;;5032446;28;19908;-67
2024/03/20 08:38:00;;;;;;;;;;;13.90;52.00;;;;;;5032646;28;19963;-67
2024/03/20 08:40:26;;;;;;;;;;;14.00;54.10;;;;;;5032539;28;20435;-67
2024/03/20 08:42:51;;;;;;;;;;;14.10;51.10;;;;;;5032455;28;19963;-67
2024/03/20 08:45:17;;;;;;;;;;;14.30;46.90;;;;;;5032269;28;19905;-67
2024/03/20 08:47:43;;;;;;;;;;;14.40;42.40;;;;;;5032685;28;20372;-67
2024/03/20 08:50:09;;;;;;;;;;;14.60;43.80;;;;;;5032365;28;19912;-67
2024/03/20 08:52:35;;;;;;;;;;;14.70;37.70;;;;;;5032407;28;19923;-67
2024/03/20 08:55:01;;;;;;;;;;;14.80;35.40;;;;;;5032190;28;19940;-67
2024/03/20 08:57:27;;;;;;;;;;;14.90;37.70;;;;;;5032330;28;19959;-67
2024/03/20 08:59:52;;;;;;;;;;;15.00;31.10;;;;;;5032267;28;19951;-68
2024/03/20 09:02:18;;;;;;;;;;;15.10;31.00;;;;;;5032333;28;19905;-67
2024/03/20 09:04:43;;;;;;;;;;;15.20;29.30;;;;;;5032287;28;19905;-67
2024/03/20 09:07:09;;;;;;;;;;;15.30;33.30;;;;;;5032073;28;19905;-67
2024/03/20 09:09:35;;;;;;;;;;;15.40;29.90;;;;;;5032261;28;19909;-67
2024/03/20 09:12:04;;;;;;;;;;;15.50;26.80;;;;;;5032169;28;20384;-67
2024/03/20 09:14:33;;;;;;;;;;;15.60;25.20;;;;;;5032258;28;19995;-68
2024/03/20 09:16:59;;;;;;;;;;;15.70;26.00;;;;;;5031991;28;19944;-67
2024/03/20 09:19:24;;;;;;;;;;;15.90;42.40;;;;;;5032351;28;19948;-68
2024/03/20 09:21:50;;;;;;;;;;;16.00;23.80;;;;;;5035851;28;20342;-68
2024/03/20 09:24:16;;;;;;;;;;;16.20;20.20;;;;;;5036287;28;19912;-68
2024/03/20 09:26:42;;;;;;;;;;;16.30;18.20;;;;;;5035996;28;19959;-68
2024/03/20 09:29:08;;;;;;;;;;;16.50;16.10;;;;;;5036279;28;19905;-68
2024/03/20 09:31:33;;;;;;;;;;;16.50;8.20;;;;;;5035958;28;19920;-68
2024/03/20 09:33:59;;;;;;;;;;;16.60;7.10;;;;;;5036029;28;20427;-68
2024/03/20 09:36:25;;;;;;;;;;;16.70;8.60;;;;;;5035854;28;19909;-68
2024/03/20 09:38:51;;;;;;;;;;;16.80;8.10;;;;;;5035957;28;19912;-68
2024/03/20 09:41:17;;;;;;;;;;;16.90;8.10;;;;;;5035806;28;19905;-68
2024/03/20 09:43:44;;;;;;;;;;;17.10;7.20;;;;;;5035957;28;19952;-67
2024/03/20 09:46:15;;;;;;;;;;;17.10;5.60;;;;;;5035618;28;19905;-68
2024/03/20 09:48:41;;;;;;;;;;;17.10;7.70;;;;;;5035812;28;19912;-68
2024/03/20 09:51:07;;;;;;;;;;;17.20;7.10;;;;;;5035678;28;19905;-67
2024/03/20 09:53:34;;;;;;;;;;;17.30;10.30;;;;;;5035587;28;19960;-68
2024/03/20 09:56:09;;;;;;;;;;;17.50;10.50;;;;;;5035305;28;19916;-67
2024/03/20 09:58:38;;;;;;;;;;;17.60;8.30;;;;;;5035796;28;20376;-67
2024/03/20 10:01:08;;;;;;;;;;;17.60;5.00;;;;;;5035419;28;19905;-67
2024/03/20 10:03:33;;;;;;;;;;;17.70;7.20;;;;;;5035569;28;19941;-67
2024/03/20 10:05:59;;;;;;;;;;;17.70;3.20;;;;;;5035245;28;20399;-67
2024/03/20 10:08:24;;;;;;;;;;;17.70;4.90;;;;;;5035460;28;20059;-68
2024/03/20 10:10:53;;;;;;;;;;;17.80;3.20;;;;;;5035250;28;19906;-67
2024/03/20 10:13:19;;;;;;;;;;;17.80;3.30;;;;;;5035285;28;19916;-67
2024/03/20 10:15:44;;;;;;;;;;;17.90;2.50;;;;;;5035111;28;20368;-68
2024/03/20 10:18:16;;;;;;;;;;;18.10;1.10;;;;;;5035213;28;19912;-68
2024/03/20 10:20:42;;;;;;;;;;;18.20;1.50;;;;;;5035115;28;20392;-67
2024/03/20 10:23:12;;;;;;;;;;;18.50;1.00;;;;;;5035437;28;19967;-68
2024/03/20 10:25:38;;;;;;;;;;;18.60;1.00;;;;;;5034898;28;19955;-68
2024/03/20 10:28:04;;;;;;;;;;;18.90;1.00;;;;;;5035063;28;19948;-68
2024/03/20 10:30:30;;;;;;;;;;;19.20;1.00;;;;;;5034581;28;19913;-68
2024/03/20 10:32:56;;;;;;;;;;;19.30;1.00;;;;;;5034795;28;19955;-67
2024/03/20 10:35:24;;;;;;;;;;;19.30;1.00;;;;;;5034700;28;19908;-68
2024/03/20 10:37:50;;;;;;;;;;;19.10;1.00;;;;;;5034854;28;19905;-68
2024/03/20 10:40:17;;;;;;;;;;;19.20;1.00;;;;;;5034747;28;20365;-67
2024/03/20 10:42:49;;;;;;;;;;;19.10;1.00;;;;;;5034856;28;19912;-68
2024/03/20 10:45:16;;;;;;;;;;;19.20;1.00;;;;;;5034154;28;20269;-68
2024/03/20 10:47:43;;;;;;;;;;;19.30;1.00;;;;;;5034547;28;19909;-67
2024/03/20 10:50:13;;;;;;;;;;;19.40;1.00;;;;;;5026254;28;20578;-68
2024/03/20 10:52:39;;;;;;;;;;;19.50;1.00;;;;;;5034433;28;19916;-69
2024/03/20 10:55:06;;;;;;;;;;;19.60;1.00;;;;;;5036781;28;19905;-68
2024/03/20 10:57:32;;;;;;;;;;;19.90;1.00;;;;;;5036681;28;19909;-67
2024/03/20 11:00:00;;;;;;;;;;;20.00;1.00;;;;;;5046866;28;19908;-68
2024/03/20 11:02:26;;;;;;;;;;;20.00;1.00;;;;;;5054122;28;20284;-68
2024/03/20 11:04:51;;;;;;;;;;;20.10;1.00;;;;;;5053810;28;19904;-68
2024/03/20 11:07:29;;;;;;;;;;;20.10;1.00;;;;;;5053964;28;19911;-69
2024/03/20 11:09:57;;;;;;;;;;;20.30;1.00;;;;;;5054028;28;19905;-68
2024/03/20 11:12:27;;;;;;;;;;;20.60;1.00;;;;;;5053505;28;19905;-68
2024/03/20 11:14:53;;;;;;;;;;;20.70;1.00;;;;;;5054034;28;20003;-68
2024/03/20 11:17:20;;;;;;;;;;;20.80;1.00;;;;;;5053828;28;19952;-68
2024/03/20 11:19:46;;;;;;;;;;;21.00;1.00;;;;;;5053302;28;19939;-68
2024/03/20 11:22:21;;;;;;;;;;;21.20;1.00;;;;;;5054161;28;19908;-68
2024/03/20 11:24:48;;;;;;;;;;;21.20;1.00;;;;;;5053933;28;19905;-69
2024/03/20 11:27:13;;;;;;;;;;;21.40;1.00;;;;;;5053035;28;19955;-69
2024/03/20 11:29:39;;;;;;;;;;;21.50;1.00;;;;;;5053523;28;19912;-69
2024/03/20 11:32:04;;;;;;;;;;;21.60;1.00;;;;;;5053784;28;20353;-68
2024/03/20 11:34:32;;;;;;;;;;;21.90;1.00;;;;;;5053129;28;19916;-69
2024/03/20 11:36:57;;;;;;;;;;;22.10;1.00;;;;;;5053703;28;20428;-69
2024/03/20 11:39:23;;;;;;;;;;;22.10;1.00;;;;;;5053429;28;19933;-68
2024/03/20 11:41:48;;;;;;;;;;;22.10;1.00;;;;;;5053033;28;20250;-68
2024/03/20 11:44:14;;;;;;;;;;;22.40;1.00;;;;;;5052561;28;19947;-68
2024/03/20 11:46:39;;;;;;;;;;;22.70;1.00;;;;;;5053221;28;19904;-69
2024/03/20 11:49:06;;;;;;;;;;;23.00;1.00;;;;;;5052856;28;19936;-68
2024/03/20 11:51:32;;;;;;;;;;;23.20;1.00;;;;;;5053331;28;19969;-68
2024/03/20 11:53:58;;;;;;;;;;;23.60;1.00;;;;;;5053253;28;20339;-68
2024/03/20 11:56:23;;;;;;;;;;;24.10;1.00;;;;;;5052588;28;19947;-68
2024/03/20 11:58:49;;;;;;;;;;;24.50;1.00;;;;;;5053195;28;20478;-68
2024/03/20 12:01:15;;;;;;;;;;;24.50;1.00;;;;;;5053117;28;19947;-68
2024/03/20 12:03:40;;;;;;;;;;;24.90;1.00;;;;;;5052678;28;20364;-69
2024/03/20 12:06:16;;;;;;;;;;;25.30;1.00;;;;;;5052818;28;19905;-68
2024/03/20 12:08:42;;;;;;;;;;;25.40;1.00;;;;;;5052989;28;19905;-69
2024/03/20 12:11:28;;;;;;;;;;;25.80;1.00;;;;;;5052396;28;19931;-69
2024/03/20 12:13:54;;;;;;;;;;;25.80;1.00;;;;;;5052845;28;19979;-69
2024/03/20 12:16:20;;;;;;;;;;;26.20;1.00;;;;;;5052707;28;19992;-69
2024/03/20 12:18:47;;;;;;;;;;;26.70;1.00;;;;;;5052294;28;20319;-69
2024/03/20 12:21:13;;;;;;;;;;;26.90;1.00;;;;;;5052744;28;20392;-68
2024/03/20 12:23:39;;;;;;;;;;;27.20;1.00;;;;;;5052792;28;20280;-68
2024/03/20 12:26:05;;;;;;;;;;;27.50;1.00;;;;;;5052071;28;19911;-69
2024/03/20 12:28:31;;;;;;;;;;;27.50;1.00;;;;;;5052637;28;20003;-69
2024/03/20 12:30:57;;;;;;;;;;;27.10;1.00;;;;;;5052760;28;19913;-68
2024/03/20 12:33:22;;;;;;;;;;;27.20;1.00;;;;;;5051935;28;19978;-69
2024/03/20 12:35:48;;;;;;;;;;;27.30;1.00;;;;;;5052291;28;20364;-68
2024/03/20 12:38:13;;;;;;;;;;;27.00;1.00;;;;;;5052761;28;20011;-69
2024/03/20 12:40:40;;;;;;;;;;;26.70;1.00;;;;;;5052057;28;19909;-68
2024/03/20 12:43:06;;;;;;;;;;;26.90;1.00;;;;;;5052508;28;19912;-68
2024/03/20 12:45:31;;;;;;;;;;;27.10;1.00;;;;;;5052185;28;19909;-68
2024/03/20 12:47:57;;;;;;;;;;;27.30;1.00;;;;;;5051776;28;19931;-68
2024/03/20 12:50:23;;;;;;;;;;;27.70;1.00;;;;;;5052240;28;20387;-68
2024/03/20 12:52:48;;;;;;;;;;;28.00;1.00;;;;;;5052185;28;19916;-68
2024/03/20 12:55:14;;;;;;;;;;;28.20;1.00;;;;;;5051189;28;20358;-68
2024/03/20 12:57:40;;;;;;;;;;;28.20;1.00;;;;;;5052245;28;19905;-68
2024/03/20 13:00:10;;;;;;;;;;;28.20;1.00;;;;;;5052254;28;20372;-68
2024/03/20 13:02:36;;;;;;;;;;;28.40;1.00;;;;;;5051811;28;19905;-68
2024/03/20 13:05:03;;;;;;;;;;;28.80;1.00;;;;;;5052044;28;19904;-68
2024/03/20 13:07:28;;;;;;;;;;;28.50;1.00;;;;;;5044042;28;19912;-69
2024/03/20 13:09:59;;;;;;;;;;;28.50;1.00;;;;;;5031595;28;20361;-70
2024/03/20 13:12:25;;;;;;;;;;;28.30;1.00;;;;;;5031896;28;19928;-69
2024/03/20 13:14:50;;;;;;;;;;;29.00;1.00;;;;;;5042457;28;19908;-69
2024/03/20 13:17:19;;;;;;;;;;;29.30;1.00;;;;;;5034426;28;19975;-69
2024/03/20 13:19:48;;;;;;;;;;;29.50;1.00;;;;;;5032585;28;19913;-69
2024/03/20 13:22:18;;;;;;;;;;;29.70;1.00;;;;;;5035120;28;19905;-69
2024/03/20 13:24:47;;;;;;;;;;;30.20;1.00;;;;;;5032306;28;20427;-69
2024/03/20 13:27:14;;;;;;;;;;;30.30;1.00;;;;;;5031121;28;19913;-69
2024/03/20 13:29:46;;;;;;;;;;;30.50;1.00;;;;;;5034118;28;19909;-69
2024/03/20 13:32:18;;;;;;;;;;;30.50;1.00;;;;;;5032873;28;19909;-69
2024/03/20 13:34:46;;;;;;;;;;;30.50;1.00;;;;;;5044531;28;19905;-69
2024/03/20 13:37:16;;;;;;;;;;;30.70;1.00;;;;;;5043613;28;19905;-69
2024/03/20 13:39:48;;;;;;;;;;;30.80;1.00;;;;;;5051345;28;20004;-69
2024/03/20 13:42:33;;;;;;;;;;;31.20;1.00;;;;;;5051963;28;19912;-69
2024/03/20 13:45:03;;;;;;;;;;;31.60;1.00;;;;;;5051847;28;19912;-69
2024/03/20 13:47:29;;;;;;;;;;;32.00;1.00;;;;;;5051377;28;19914;-69
2024/03/20 13:49:54;;;;;;;;;;;32.50;1.00;;;;;;5050923;28;20399;-69
2024/03/20 13:52:20;;;;;;;;;;;32.80;1.00;;;;;;5051093;28;19904;-69
2024/03/20 13:54:45;;;;;;;;;;;33.10;1.00;;;;;;5051339;28;19912;-69
2024/03/20 13:57:12;;;;;;;;;;;33.30;1.00;;;;;;5051500;28;19909;-69
2024/03/20 13:59:40;;;;;;;;;;;32.30;1.00;;;;;;5051665;28;20284;-69
2024/03/20 14:02:25;;;;;;;;;;;32.60;1.00;;;;;;5051197;28;19991;-69
2024/03/20 14:04:51;;;;;;;;;;;32.70;1.00;;;;;;5048426;28;19913;-67
2024/03/20 14:07:16;;;;;;;;;;;32.20;1.00;;;;;;5045676;28;20292;-68
2024/03/20 14:09:42;;;;;;;;;;;32.30;1.00;;;;;;5047112;28;19912;-70
2024/03/20 14:12:12;;;;;;;;;;;32.20;1.00;;;;;;5054251;28;19905;-68
2024/03/20 14:14:38;;;;;;;;;;;32.10;1.00;;;;;;5059802;28;19908;-68
2024/03/20 14:17:06;;;;;;;;;;;32.30;1.00;;;;;;5059945;28;19904;-68
2024/03/20 14:19:32;;;;;;;;;;;32.20;1.00;;;;;;5059481;28;20383;-68